createdAt,value
2023-05-14T00:01:19.976Z,102537.56
2023-05-14T00:03:46.677Z,102532.00
2023-05-14T00:06:15.646Z,102500.16
2023-05-14T00:08:44.486Z,102538.84
2023-05-14T00:11:11.325Z,102523.66
2023-05-14T00:13:38.022Z,102535.16
2023-05-14T00:16:05.046Z,102485.97
2023-05-14T00:18:34.208Z,102510.28
2023-05-14T00:21:00.849Z,102512.34
2023-05-14T00:23:29.815Z,102504.94
2023-05-14T00:25:56.511Z,102487.31
2023-05-14T00:28:23.200Z,102435.41
2023-05-14T00:30:49.815Z,102485.00
2023-05-14T00:33:16.463Z,102479.94
2023-05-14T00:35:43.238Z,102476.63
2023-05-14T00:38:10.193Z,102473.63
2023-05-14T00:40:36.770Z,102501.38
2023-05-14T00:43:05.855Z,102487.84
2023-05-14T00:45:32.458Z,102489.25
2023-05-14T00:47:59.144Z,102482.09
2023-05-14T00:50:29.089Z,102486.59
2023-05-14T00:52:55.783Z,102483.88
2023-05-14T00:55:22.842Z,102482.81
2023-05-14T00:57:53.800Z,102466.22
2023-05-14T01:00:23.181Z,102477.06
2023-05-14T01:02:50.160Z,102479.66
2023-05-14T01:05:17.002Z,102470.88
2023-05-14T01:08:13.625Z,102466.47
2023-05-14T01:10:52.120Z,102466.38
2023-05-14T01:13:28.593Z,102462.88
2023-05-14T01:15:57.794Z,102443.47
2023-05-14T01:18:26.027Z,102448.69
2023-05-14T01:20:54.463Z,102446.72
2023-05-14T01:23:23.343Z,102450.94
2023-05-14T01:25:50.104Z,102447.41
2023-05-14T01:28:27.534Z,102452.47
2023-05-14T01:31:01.153Z,102436.22
2023-05-14T01:33:29.824Z,102447.88
2023-05-14T01:35:56.658Z,102450.41
2023-05-14T01:38:24.188Z,102448.59
2023-05-14T01:40:51.397Z,102435.91
2023-05-14T01:43:19.144Z,102455.41
2023-05-14T01:45:46.105Z,102449.94
2023-05-14T01:48:12.840Z,102451.47
2023-05-14T01:50:39.498Z,102445.88
2023-05-14T01:53:13.388Z,102439.03
2023-05-14T01:55:42.329Z,102459.31
2023-05-14T01:58:12.250Z,102442.53
2023-05-14T02:00:38.860Z,102454.38
2023-05-14T02:03:05.510Z,102459.38
2023-05-14T02:05:32.208Z,102455.00
2023-05-14T02:08:01.193Z,102453.28
2023-05-14T02:10:30.116Z,102455.00
2023-05-14T02:12:58.986Z,102455.78
2023-05-14T02:15:25.675Z,102443.41
2023-05-14T02:17:52.301Z,102450.47
2023-05-14T02:20:18.944Z,102428.22
2023-05-14T02:22:46.498Z,102436.59
2023-05-14T02:25:15.859Z,102416.44
2023-05-14T02:27:42.567Z,102455.69
2023-05-14T02:30:10.366Z,102456.66
2023-05-14T02:32:37.591Z,102441.25
2023-05-14T02:35:04.625Z,102439.28
2023-05-14T02:37:36.096Z,102425.78
2023-05-14T02:40:02.741Z,102439.28
2023-05-14T02:42:31.577Z,102436.06
2023-05-14T02:44:58.261Z,102427.38
2023-05-14T02:47:27.154Z,102423.59
2023-05-14T02:49:53.788Z,102433.66
2023-05-14T02:52:20.348Z,102417.56
2023-05-14T02:54:46.978Z,102442.03
2023-05-14T02:57:16.051Z,102417.69
2023-05-14T02:59:44.788Z,102431.44
2023-05-14T03:02:11.789Z,102404.88
2023-05-14T03:04:39.004Z,102412.16
2023-05-14T03:07:05.785Z,102428.16
2023-05-14T03:09:32.540Z,102418.53
2023-05-14T03:12:00.117Z,102432.00
2023-05-14T03:14:26.738Z,102426.00
2023-05-14T03:16:55.648Z,102385.78
2023-05-14T03:19:22.292Z,102426.00
2023-05-14T03:21:51.638Z,102403.13
2023-05-14T03:24:21.183Z,102379.94
2023-05-14T03:26:47.991Z,102407.31
2023-05-14T03:29:18.097Z,102413.13
2023-05-14T03:31:44.968Z,102419.41
2023-05-14T03:34:11.649Z,102403.44
2023-05-14T03:36:39.812Z,102408.66
2023-05-14T03:39:09.777Z,102417.66
2023-05-14T03:41:39.344Z,102408.22
2023-05-14T03:44:06.400Z,102410.19
2023-05-14T03:46:33.307Z,102417.38
2023-05-14T03:49:00.024Z,102408.09
2023-05-14T03:51:29.000Z,102407.19
2023-05-14T03:53:55.577Z,102407.28
2023-05-14T03:56:25.048Z,102406.31
2023-05-14T03:58:54.885Z,102392.94
2023-05-14T04:01:21.530Z,102401.25
2023-05-14T04:03:48.333Z,102406.56
2023-05-14T04:06:17.429Z,102373.09
2023-05-14T04:08:44.090Z,102395.66
2023-05-14T04:11:10.718Z,102400.09
2023-05-14T04:13:37.365Z,102395.75
2023-05-14T04:16:06.698Z,102369.13
2023-05-14T04:18:35.861Z,102390.47
2023-05-14T04:21:02.699Z,102394.97
2023-05-14T04:23:29.822Z,102396.66
2023-05-14T04:25:58.530Z,102400.22
2023-05-14T04:28:25.240Z,102394.03
2023-05-14T04:30:52.529Z,102402.84
2023-05-14T04:33:22.125Z,102400.22
2023-05-14T04:35:52.225Z,102402.03
2023-05-14T04:38:18.916Z,102395.94
2023-05-14T04:40:47.591Z,102386.16
2023-05-14T04:43:17.578Z,102392.34
2023-05-14T04:45:46.635Z,102390.97
2023-05-14T04:48:16.406Z,102381.84
2023-05-14T04:50:44.311Z,102381.94
2023-05-14T04:53:15.706Z,102398.09
2023-05-14T04:55:42.387Z,102368.41
2023-05-14T04:58:09.002Z,102387.56
2023-05-14T05:00:38.331Z,102400.50
2023-05-14T05:03:07.935Z,102393.44
2023-05-14T05:05:35.517Z,102391.72
2023-05-14T05:08:02.136Z,102391.63
2023-05-14T05:10:28.747Z,102387.38
2023-05-14T05:12:55.434Z,102384.00
2023-05-14T05:15:22.896Z,102379.56
2023-05-14T05:17:50.800Z,102375.91
2023-05-14T05:20:19.917Z,102382.59
2023-05-14T05:22:46.674Z,102382.59
2023-05-14T05:25:13.391Z,102385.19
2023-05-14T05:27:40.076Z,102376.25
2023-05-14T05:30:07.451Z,102364.25
2023-05-14T05:32:34.421Z,102371.16
2023-05-14T05:35:01.532Z,102378.72
2023-05-14T05:37:30.797Z,102380.28
2023-05-14T05:39:57.512Z,102365.91
2023-05-14T05:42:24.573Z,102343.22
2023-05-14T05:44:51.194Z,102354.28
2023-05-14T05:47:17.934Z,102350.75
2023-05-14T05:49:44.576Z,102377.94
2023-05-14T05:52:11.158Z,102373.56
2023-05-14T05:54:40.136Z,102379.00
2023-05-14T05:57:09.244Z,102365.03
2023-05-14T05:59:38.085Z,102300.16
2023-05-14T06:02:05.014Z,102373.38
2023-05-14T06:04:31.635Z,102386.31
2023-05-14T06:07:00.570Z,102378.50
2023-05-14T06:09:29.449Z,102381.84
2023-05-14T06:11:56.031Z,102373.81
2023-05-14T06:14:23.463Z,102380.03
2023-05-14T06:16:50.105Z,102374.91
2023-05-14T06:19:17.080Z,102377.78
2023-05-14T06:21:48.650Z,102375.63
2023-05-14T06:24:20.131Z,102370.56
2023-05-14T06:26:49.457Z,102356.56
2023-05-14T06:29:16.142Z,102360.84
2023-05-14T06:31:42.833Z,102368.00
2023-05-14T06:34:09.507Z,102365.66
2023-05-14T06:36:36.215Z,102368.44
2023-05-14T06:39:05.222Z,102351.66
2023-05-14T06:41:34.022Z,102331.94
2023-05-14T06:44:00.664Z,102359.72
2023-05-14T06:46:27.317Z,102357.66
2023-05-14T06:48:59.195Z,102350.59
2023-05-14T06:51:26.169Z,102350.19
2023-05-14T06:53:54.986Z,102353.09
2023-05-14T06:56:22.518Z,102353.09
2023-05-14T06:58:49.245Z,102315.72
2023-05-14T07:01:17.208Z,102356.53
2023-05-14T07:03:44.063Z,102353.38
2023-05-14T07:06:13.933Z,102352.31
2023-05-14T07:08:40.861Z,102351.03
2023-05-14T07:11:09.957Z,102342.25
2023-05-14T07:13:39.501Z,102334.44
2023-05-14T07:16:07.208Z,102357.13
2023-05-14T07:18:33.912Z,102346.97
2023-05-14T07:21:00.552Z,102326.44
2023-05-14T07:23:27.143Z,102351.59
2023-05-14T07:25:56.747Z,102349.72
2023-05-14T07:28:23.341Z,102338.88
2023-05-14T07:30:52.192Z,102359.47
2023-05-14T07:33:18.841Z,102343.69
2023-05-14T07:35:45.742Z,102338.13
2023-05-14T07:38:12.482Z,102344.72
2023-05-14T07:40:41.798Z,102321.84
2023-05-14T07:43:08.520Z,102333.94
2023-05-14T07:45:40.613Z,102314.69
2023-05-14T07:48:09.680Z,102323.16
2023-05-14T07:50:37.127Z,102357.28
2023-05-14T07:53:03.905Z,102316.47
2023-05-14T07:55:30.773Z,102353.56
2023-05-14T07:57:57.455Z,102333.59
2023-05-14T08:00:24.376Z,102349.97
2023-05-14T08:03:00.220Z,102342.34
2023-05-14T08:05:29.386Z,102339.97
2023-05-14T08:07:55.994Z,102316.91
2023-05-14T08:10:25.014Z,102331.19
2023-05-14T08:12:51.878Z,102343.91
2023-05-14T08:15:18.811Z,102336.00
2023-05-14T08:17:45.454Z,102343.31
2023-05-14T08:20:12.363Z,102315.78
2023-05-14T08:22:41.079Z,102336.59
2023-05-14T08:25:08.092Z,102336.06
2023-05-14T08:27:34.739Z,102333.72
2023-05-14T08:30:01.335Z,102314.84
2023-05-14T08:32:27.933Z,102325.75
2023-05-14T08:34:54.595Z,102322.75
2023-05-14T08:37:21.226Z,102330.34
2023-05-14T08:39:50.435Z,102330.84
2023-05-14T08:42:21.316Z,102327.66
2023-05-14T08:44:52.670Z,102314.03
2023-05-14T08:47:22.725Z,102292.97
2023-05-14T08:49:58.800Z,102310.28
2023-05-14T08:52:27.979Z,102308.94
2023-05-14T08:54:56.564Z,102302.94
2023-05-14T08:57:28.078Z,102314.78
2023-05-14T08:59:54.928Z,102323.06
2023-05-14T09:02:27.823Z,102311.19
2023-05-14T09:04:59.561Z,102314.19
2023-05-14T09:07:27.158Z,102305.88
2023-05-14T09:09:54.432Z,102312.31
2023-05-14T09:12:23.712Z,102312.56
2023-05-14T09:14:53.017Z,102317.22
2023-05-14T09:17:20.150Z,102314.81
2023-05-14T09:19:49.179Z,102313.28
2023-05-14T09:22:18.345Z,102303.66
2023-05-14T09:25:03.858Z,102304.09
2023-05-14T09:27:32.427Z,102301.75
2023-05-14T09:30:06.131Z,102300.19
2023-05-14T09:32:40.264Z,102294.38
2023-05-14T09:35:40.336Z,102295.59
2023-05-14T09:38:09.419Z,102286.69
2023-05-14T09:40:36.321Z,102296.78
2023-05-14T09:43:03.674Z,102291.66
2023-05-14T09:45:32.629Z,102282.44
2023-05-14T09:48:00.961Z,102297.50
2023-05-14T09:50:27.745Z,102293.13
2023-05-14T09:52:55.995Z,102301.19
2023-05-14T09:55:26.251Z,102301.19
2023-05-14T09:57:52.899Z,102285.63
2023-05-14T10:00:20.209Z,102282.94
2023-05-14T10:02:47.810Z,102282.81
2023-05-14T10:05:17.670Z,102277.28
2023-05-14T10:07:48.006Z,102265.38
2023-05-14T10:10:18.841Z,102276.38
2023-05-14T10:13:00.845Z,102285.97
2023-05-14T10:15:33.823Z,102287.09
2023-05-14T10:18:08.068Z,102284.06
2023-05-14T10:20:35.322Z,102276.09
2023-05-14T10:23:02.229Z,102255.13
2023-05-14T10:25:29.435Z,102262.69
2023-05-14T10:27:57.042Z,102254.19
2023-05-14T10:30:26.247Z,102256.97
2023-05-14T10:33:13.455Z,102259.75
2023-05-14T10:35:57.884Z,102253.66
2023-05-14T10:38:35.163Z,102255.47
2023-05-14T10:41:05.746Z,102263.28
2023-05-14T10:43:41.761Z,102258.84
2023-05-14T10:46:12.135Z,102259.97
2023-05-14T10:48:42.074Z,102256.75
2023-05-14T10:51:12.809Z,102244.63
2023-05-14T10:53:41.443Z,102230.66
2023-05-14T10:56:10.844Z,102249.34
2023-05-14T10:58:38.952Z,102238.91
2023-05-14T11:01:11.286Z,102212.38
2023-05-14T11:03:43.317Z,102240.78
2023-05-14T11:06:11.825Z,102239.91
2023-05-14T11:08:39.476Z,102234.50
2023-05-14T11:11:09.597Z,102241.63
2023-05-14T11:13:36.424Z,102243.47
2023-05-14T11:16:11.949Z,102232.09
2023-05-14T11:18:50.599Z,102226.78
2023-05-14T11:21:17.633Z,102229.50
2023-05-14T11:23:49.111Z,102203.00
2023-05-14T11:26:15.903Z,102213.59
2023-05-14T11:28:45.120Z,102199.34
2023-05-14T11:31:11.803Z,102214.44
2023-05-14T11:33:39.967Z,102203.84
2023-05-14T11:36:06.701Z,102211.84
2023-05-14T11:38:33.454Z,102206.66
2023-05-14T11:41:00.139Z,102203.16
2023-05-14T11:43:29.640Z,102204.88
2023-05-14T11:45:56.616Z,102200.50
2023-05-14T11:48:27.311Z,102191.63
2023-05-14T11:50:54.051Z,102191.63
2023-05-14T11:53:26.017Z,102196.06
2023-05-14T11:55:55.562Z,102185.34
2023-05-14T11:58:22.248Z,102185.31
2023-05-14T12:00:55.664Z,102192.34
2023-05-14T12:03:26.798Z,102193.25
2023-05-14T12:05:58.287Z,102185.34
2023-05-14T12:08:32.649Z,102180.94
2023-05-14T12:11:04.010Z,102176.56
2023-05-14T12:13:31.977Z,102176.53
2023-05-14T12:16:00.879Z,102179.22
2023-05-14T12:18:29.926Z,102177.44
2023-05-14T12:21:01.803Z,102179.19
2023-05-14T12:23:30.251Z,102157.00
2023-05-14T12:26:03.532Z,102168.56
2023-05-14T12:28:30.443Z,102169.44
2023-05-14T12:30:57.662Z,102162.34
2023-05-14T12:33:26.511Z,102163.16
2023-05-14T12:36:19.853Z,102153.38
2023-05-14T12:38:49.293Z,102156.91
2023-05-14T12:41:16.413Z,102154.13
2023-05-14T12:43:43.946Z,102151.44
2023-05-14T12:46:10.872Z,102155.81
2023-05-14T12:48:37.452Z,102154.00
2023-05-14T12:51:04.164Z,102135.28
2023-05-14T12:53:30.751Z,102142.34
2023-05-14T12:55:57.554Z,102137.91
2023-05-14T12:58:24.261Z,102129.97
2023-05-14T13:00:51.042Z,102132.63
2023-05-14T13:03:20.256Z,102114.03
2023-05-14T13:05:47.011Z,102114.88
2023-05-14T13:08:17.830Z,102129.06
2023-05-14T13:10:44.926Z,102123.63
2023-05-14T13:13:11.919Z,102121.78
2023-05-14T13:15:40.857Z,102116.34
2023-05-14T13:18:09.882Z,102106.47
2023-05-14T13:20:39.294Z,102094.91
2023-05-14T13:23:06.618Z,102113.53
2023-05-14T13:25:33.248Z,102113.66
2023-05-14T13:27:59.932Z,102122.53
2023-05-14T13:30:26.792Z,102120.84
2023-05-14T13:32:53.506Z,102117.34
2023-05-14T13:35:20.151Z,102109.41
2023-05-14T13:37:48.947Z,102115.56
2023-05-14T13:40:15.741Z,102106.69
2023-05-14T13:42:42.471Z,102097.84
2023-05-14T13:45:09.545Z,102108.41
2023-05-14T13:47:36.203Z,102103.00
2023-05-14T13:50:05.509Z,102104.75
2023-05-14T13:52:32.108Z,102092.41
2023-05-14T13:54:58.712Z,102095.00
2023-05-14T13:57:26.054Z,102082.59
2023-05-14T13:59:52.750Z,102058.63
2023-05-14T14:02:22.029Z,102072.81
2023-05-14T14:04:49.559Z,102071.91
2023-05-14T14:07:18.781Z,102075.56
2023-05-14T14:09:50.169Z,102039.28
2023-05-14T14:12:17.032Z,102052.63
2023-05-14T14:14:43.709Z,102078.41
2023-05-14T14:17:10.368Z,102073.19
2023-05-14T14:19:36.994Z,102075.00
2023-05-14T14:22:03.881Z,102065.31
2023-05-14T14:24:30.592Z,102068.88
2023-05-14T14:26:57.179Z,102062.72
2023-05-14T14:29:31.188Z,102053.94
2023-05-14T14:31:57.889Z,102052.19
2023-05-14T14:34:26.844Z,102053.09
2023-05-14T14:36:53.459Z,102048.69
2023-05-14T14:39:25.354Z,102029.22
2023-05-14T14:41:52.097Z,102053.16
2023-05-14T14:44:18.776Z,102047.88
2023-05-14T14:46:45.360Z,102054.06
2023-05-14T14:49:11.948Z,102040.81
2023-05-14T14:51:38.641Z,102007.16
2023-05-14T14:54:05.659Z,102044.34
2023-05-14T14:56:33.538Z,102039.00
2023-05-14T14:59:04.346Z,102048.66
2023-05-14T15:01:33.334Z,102048.59
2023-05-14T15:03:59.981Z,102053.84
2023-05-14T15:06:29.024Z,102045.91
2023-05-14T15:08:55.918Z,102042.34
2023-05-14T15:11:22.562Z,102046.72
2023-05-14T15:13:51.494Z,102035.28
2023-05-14T15:16:18.472Z,102029.94
2023-05-14T15:18:45.186Z,102028.19
2023-05-14T15:21:11.898Z,102029.06
2023-05-14T15:23:38.501Z,102022.91
2023-05-14T15:26:07.841Z,102014.91
2023-05-14T15:28:36.833Z,102021.03
2023-05-14T15:31:05.844Z,102019.19
2023-05-14T15:33:34.084Z,102021.81
2023-05-14T15:36:00.919Z,102014.66
2023-05-14T15:38:27.879Z,102014.66
2023-05-14T15:40:54.463Z,102003.94
2023-05-14T15:43:21.191Z,102010.09
2023-05-14T15:45:50.494Z,101990.63
2023-05-14T15:48:19.405Z,101993.25
2023-05-14T15:50:49.687Z,102008.28
2023-05-14T15:53:16.575Z,102002.09
2023-05-14T15:55:48.194Z,101997.59
2023-05-14T15:58:17.108Z,101993.16
2023-05-14T16:00:43.812Z,101995.75
2023-05-14T16:03:13.072Z,101990.41
2023-05-14T16:05:39.742Z,101994.81
2023-05-14T16:08:06.605Z,101990.41
2023-05-14T16:10:33.200Z,101959.34
2023-05-14T16:13:02.028Z,101984.16
2023-05-14T16:15:29.131Z,101989.47
2023-05-14T16:17:55.971Z,101975.31
2023-05-14T16:20:23.135Z,101985.91
2023-05-14T16:22:52.268Z,101982.22
2023-05-14T16:25:18.908Z,101981.31
2023-05-14T16:27:47.873Z,101983.00
2023-05-14T16:30:16.848Z,101977.59
2023-05-14T16:32:43.584Z,101971.28
2023-05-14T16:35:13.354Z,101974.66
2023-05-14T16:37:40.004Z,101949.78
2023-05-14T16:40:07.982Z,101970.09
2023-05-14T16:42:34.783Z,101970.00
2023-05-14T16:45:01.400Z,101975.19
2023-05-14T16:47:30.602Z,101953.78
2023-05-14T16:49:57.267Z,101965.28
2023-05-14T16:52:26.197Z,101946.56
2023-05-14T16:54:52.812Z,101944.63
2023-05-14T16:57:22.149Z,101951.66
2023-05-14T16:59:53.971Z,101963.06
2023-05-14T17:02:20.592Z,101971.69
2023-05-14T17:04:49.838Z,101966.25
2023-05-14T17:07:16.499Z,101962.47
2023-05-14T17:09:48.018Z,101969.50
2023-05-14T17:12:17.656Z,101966.72
2023-05-14T17:14:44.314Z,101971.75
2023-05-14T17:17:11.069Z,101957.34
2023-05-14T17:19:37.695Z,101950.97
2023-05-14T17:22:07.525Z,101968.56
2023-05-14T17:24:35.527Z,101966.66
2023-05-14T17:27:02.177Z,101967.38
2023-05-14T17:29:31.122Z,101964.56
2023-05-14T17:32:01.273Z,101954.75
2023-05-14T17:34:30.166Z,101963.50
2023-05-14T17:36:56.808Z,101959.91
2023-05-14T17:39:23.410Z,101961.63
2023-05-14T17:41:50.038Z,101953.53
2023-05-14T17:44:16.643Z,101947.31
2023-05-14T17:46:44.817Z,101935.69
2023-05-14T17:49:13.859Z,101956.97
2023-05-14T17:51:40.473Z,101912.53
2023-05-14T17:54:07.121Z,101953.28
2023-05-14T17:56:34.093Z,101955.75
2023-05-14T17:59:00.890Z,101956.50
2023-05-14T18:01:30.099Z,101951.94
2023-05-14T18:03:56.756Z,101934.91
2023-05-14T18:06:23.538Z,101954.16
2023-05-14T18:08:50.232Z,101952.31
2023-05-14T18:11:16.857Z,101947.69
2023-05-14T18:13:43.671Z,101954.53
2023-05-14T18:16:10.438Z,101943.66
2023-05-14T18:18:37.082Z,101962.97
2023-05-14T18:21:04.071Z,101963.53
2023-05-14T18:23:31.533Z,101961.56
2023-05-14T18:25:58.228Z,101959.66
2023-05-14T18:28:27.035Z,101949.84
2023-05-14T18:30:53.775Z,101952.41
2023-05-14T18:33:20.505Z,101957.59
2023-05-14T18:35:49.389Z,101925.50
2023-05-14T18:38:18.042Z,101941.19
2023-05-14T18:40:44.777Z,101912.75
2023-05-14T18:43:13.448Z,101959.47
2023-05-14T18:45:40.511Z,101966.50
2023-05-14T18:48:10.422Z,101966.31
2023-05-14T18:50:39.237Z,101958.97
2023-05-14T18:53:06.359Z,101957.09
2023-05-14T18:55:33.139Z,101963.81
2023-05-14T18:57:59.770Z,101960.03
2023-05-14T19:00:28.655Z,101970.44
2023-05-14T19:02:59.933Z,101953.41
2023-05-14T19:05:29.106Z,101965.59
2023-05-14T19:07:56.806Z,101947.75
2023-05-14T19:10:25.948Z,101960.00
2023-05-14T19:12:52.552Z,101966.13
2023-05-14T19:15:19.279Z,101960.59
2023-05-14T19:17:46.060Z,101968.41
2023-05-14T19:20:12.803Z,101974.47
2023-05-14T19:22:39.438Z,101976.13
2023-05-14T19:25:07.862Z,101976.00
2023-05-14T19:27:38.857Z,101979.38
2023-05-14T19:30:08.504Z,101967.78
2023-05-14T19:32:38.100Z,101974.75
2023-05-14T19:35:05.899Z,101971.97
2023-05-14T19:37:35.535Z,101976.16
2023-05-14T19:40:04.675Z,101962.69
2023-05-14T19:42:31.853Z,101969.63
2023-05-14T19:44:58.476Z,101945.44
2023-05-14T19:47:25.168Z,101957.84
2023-05-14T19:49:51.830Z,101949.03
2023-05-14T19:52:18.473Z,101975.50
2023-05-14T19:54:45.108Z,101975.44
2023-05-14T19:57:12.066Z,101968.91
2023-05-14T19:59:39.372Z,101982.31
2023-05-14T20:02:06.164Z,101977.81
2023-05-14T20:04:33.333Z,101982.13
2023-05-14T20:06:59.952Z,101975.88
2023-05-14T20:09:26.621Z,101973.19
2023-05-14T20:11:55.437Z,101972.25
2023-05-14T20:14:22.133Z,101968.69
2023-05-14T20:16:49.078Z,101958.00
2023-05-14T20:19:16.338Z,101982.78
2023-05-14T20:21:46.265Z,101982.72
2023-05-14T20:24:15.327Z,101950.72
2023-05-14T20:26:41.984Z,101979.19
2023-05-14T20:29:11.026Z,101977.38
2023-05-14T20:31:37.635Z,101976.50
2023-05-14T20:34:04.321Z,101977.38
2023-05-14T20:36:30.928Z,101970.34
2023-05-14T20:38:57.775Z,101970.34
2023-05-14T20:41:24.596Z,101949.03
2023-05-14T20:43:51.216Z,101970.25
2023-05-14T20:46:18.050Z,101970.34
2023-05-14T20:48:49.904Z,101965.03
2023-05-14T20:51:18.899Z,101971.25
2023-05-14T20:53:48.083Z,101975.59
2023-05-14T20:56:14.741Z,101967.78
2023-05-14T20:58:41.425Z,101965.16
2023-05-14T21:01:08.214Z,101957.09
2023-05-14T21:03:35.238Z,101970.53
2023-05-14T21:06:04.740Z,101960.59
2023-05-14T21:08:33.043Z,101946.41
2023-05-14T21:10:59.974Z,101960.78
2023-05-14T21:13:26.648Z,101973.19
2023-05-14T21:15:55.885Z,101944.72
2023-05-14T21:18:22.555Z,101974.06
2023-05-14T21:20:49.153Z,101974.94
2023-05-14T21:23:15.883Z,101972.41
2023-05-14T21:25:44.998Z,101968.03
2023-05-14T21:28:11.782Z,101974.25
2023-05-14T21:30:38.361Z,101977.81
2023-05-14T21:33:07.343Z,101969.09
2023-05-14T21:35:34.030Z,101963.66
2023-05-14T21:38:00.892Z,101938.84
2023-05-14T21:40:27.534Z,101979.63
2023-05-14T21:42:54.157Z,101973.50
2023-05-14T21:45:25.591Z,101979.63
2023-05-14T21:47:55.153Z,101969.09
2023-05-14T21:50:23.070Z,101973.56
2023-05-14T21:52:49.764Z,101966.53
2023-05-14T21:55:16.407Z,101945.19
2023-05-14T21:57:43.092Z,101926.56
2023-05-14T22:00:12.905Z,101962.16
2023-05-14T22:02:39.811Z,101943.53
2023-05-14T22:05:06.653Z,101940.88
2023-05-14T22:07:33.318Z,101966.69
2023-05-14T22:09:59.986Z,101959.59
2023-05-14T22:12:26.897Z,101955.06
2023-05-14T22:14:56.045Z,101961.41
2023-05-14T22:17:22.751Z,101969.25
2023-05-14T22:19:49.397Z,101934.78
2023-05-14T22:22:18.499Z,101962.28
2023-05-14T22:24:45.180Z,101945.63
2023-05-14T22:27:12.020Z,101941.19
2023-05-14T22:29:38.620Z,101948.28
2023-05-14T22:32:08.230Z,101929.59
2023-05-14T22:34:37.225Z,101922.53
2023-05-14T22:37:04.183Z,101946.56
2023-05-14T22:39:30.767Z,101948.25
2023-05-14T22:41:57.492Z,101950.91
2023-05-14T22:44:27.811Z,101947.34
2023-05-14T22:46:59.284Z,101941.06
2023-05-14T22:49:25.953Z,101944.56
2023-05-14T22:51:57.920Z,101948.94
2023-05-14T22:54:24.548Z,101944.56
2023-05-14T22:56:53.952Z,101948.00
2023-05-14T22:59:22.720Z,101949.66
2023-05-14T23:01:52.745Z,101946.00
2023-05-14T23:04:19.372Z,101922.03
2023-05-14T23:06:48.368Z,101943.50
2023-05-14T23:09:14.981Z,101929.34
2023-05-14T23:11:41.728Z,101936.47
2023-05-14T23:14:10.598Z,101929.28
2023-05-14T23:16:39.412Z,101931.97
2023-05-14T23:19:11.152Z,101927.50
2023-05-14T23:21:37.889Z,101891.72
2023-05-14T23:24:04.727Z,101928.22
2023-05-14T23:26:31.589Z,101932.44
2023-05-14T23:28:58.216Z,101924.53
2023-05-14T23:31:25.036Z,101921.84
2023-05-14T23:33:51.951Z,101927.16
2023-05-14T23:36:20.912Z,101924.41
2023-05-14T23:38:50.077Z,101929.56
2023-05-14T23:41:19.322Z,101921.53
2023-05-14T23:43:45.987Z,101929.38
2023-05-14T23:46:13.145Z,101909.81
2023-05-14T23:48:39.918Z,101925.69
2023-05-14T23:51:06.563Z,101930.81
2023-05-14T23:53:33.217Z,101926.31
2023-05-14T23:56:00.067Z,101921.88
2023-05-14T23:58:30.339Z,101924.50
